Time;durP1;ratioP1;P1;durP2;ratioP2;P2;SDS_P1;SDS_P2;PMS_P1;PMS_P2;Temp;Humidity;BMP_temperature;BMP_pressure;BME280_temperature;BME280_humidity;BME280_pressure;Samples;Min_cycle;Max_cycle;Signal;HPM_P1;HPM_P2
2022/09/16 04:04:12;;;;;;;2.67;2.47;;;13.80;99.90;;;;;;6223277;22;20549;-62
2022/09/16 04:06:38;;;;;;;3.43;3.00;;;13.80;99.90;;;;;;6214761;23;20724;-63
2022/09/16 04:09:06;;;;;;;2.53;2.33;;;13.80;99.90;;;;;;6216088;23;20364;-64
2022/09/16 04:11:31;;;;;;;2.10;2.00;;;13.80;99.90;;;;;;6216103;23;20403;-64
2022/09/16 04:13:57;;;;;;;3.47;2.57;;;13.80;99.90;;;;;;6215804;23;20360;-63
2022/09/16 04:16:24;;;;;;;4.27;2.27;;;13.90;99.90;;;;;;6215856;23;20420;-63
2022/09/16 04:18:50;;;;;;;6.93;3.10;;;13.90;99.90;;;;;;6216129;23;20371;-64
2022/09/16 04:21:16;;;;;;;4.17;3.77;;;13.90;99.90;;;;;;6215841;23;20444;-64
2022/09/16 04:23:42;;;;;;;2.30;2.10;;;13.90;99.90;;;;;;6215276;23;20372;-64
2022/09/16 04:26:09;;;;;;;2.50;2.30;;;13.90;99.90;;;;;;6216096;23;20395;-64
2022/09/16 04:28:34;;;;;;;4.33;2.57;;;13.90;99.90;;;;;;6216390;23;20199;-64
2022/09/16 04:31:06;;;;;;;2.50;2.30;;;13.90;99.90;;;;;;6216181;23;20843;-64
2022/09/16 04:33:33;;;;;;;3.20;2.90;;;14.00;99.90;;;;;;6215010;23;20148;-63
2022/09/16 04:36:04;;;;;;;3.60;2.60;;;13.90;99.90;;;;;;6215364;23;20474;-65
2022/09/16 04:38:29;;;;;;;3.57;2.57;;;13.90;99.90;;;;;;6215914;23;20463;-64
2022/09/16 04:41:00;;;;;;;3.67;2.77;;;14.00;99.90;;;;;;6189175;23;20519;-63
2022/09/16 04:43:26;;;;;;;2.80;2.60;;;13.90;99.90;;;;;;6215610;23;20391;-64
2022/09/16 04:45:51;;;;;;;3.17;2.90;;;13.90;99.90;;;;;;6188944;23;20668;-64
2022/09/16 04:48:18;;;;;;;3.03;2.63;;;13.90;99.90;;;;;;6215951;23;20153;-63
2022/09/16 04:50:43;;;;;;;2.57;2.47;;;13.90;99.90;;;;;;6215720;23;20156;-63
2022/09/16 04:53:09;;;;;;;3.43;2.63;;;13.90;99.90;;;;;;6215403;23;20375;-63
2022/09/16 04:55:36;;;;;;;3.17;2.87;;;13.90;99.90;;;;;;6214575;23;20173;-63
2022/09/16 04:58:02;;;;;;;2.70;2.50;;;13.90;99.90;;;;;;6215458;23;20145;-63
2022/09/16 05:00:27;;;;;;;2.43;2.23;;;13.90;99.90;;;;;;6215737;23;20372;-63
2022/09/16 05:02:53;;;;;;;3.47;3.17;;;13.90;99.90;;;;;;6214871;23;20334;-63
2022/09/16 05:05:20;;;;;;;4.10;3.43;;;13.90;99.90;;;;;;6215623;23;20680;-63
2022/09/16 05:07:45;;;;;;;4.00;2.97;;;14.00;99.90;;;;;;6215621;23;20863;-63
2022/09/16 05:10:11;;;;;;;2.97;2.77;;;14.00;99.90;;;;;;6215756;23;20434;-63
2022/09/16 05:12:37;;;;;;;4.30;3.93;;;14.00;99.90;;;;;;6216799;23;20173;-64
2022/09/16 05:15:04;;;;;;;18.60;11.20;;;14.00;99.90;;;;;;6217569;23;20176;-64
2022/09/16 05:17:30;;;;;;;5.80;4.53;;;14.00;99.90;;;;;;6217780;23;20685;-64
2022/09/16 05:19:56;;;;;;;4.00;3.10;;;14.00;99.90;;;;;;6216722;23;20678;-63
2022/09/16 05:22:22;;;;;;;2.67;2.47;;;14.00;99.90;;;;;;6215836;23;20383;-64
2022/09/16 05:24:48;;;;;;;6.00;2.77;;;13.90;99.90;;;;;;6216593;23;20392;-63
2022/09/16 05:27:14;;;;;;;3.00;2.80;;;13.90;99.90;;;;;;6216506;23;20430;-64
2022/09/16 05:29:40;;;;;;;4.53;3.57;;;13.90;99.90;;;;;;6189331;23;20466;-63
2022/09/16 05:32:06;;;;;;;3.37;3.10;;;13.90;99.90;;;;;;6215857;23;20718;-64
2022/09/16 05:34:34;;;;;;;3.40;2.80;;;13.90;99.90;;;;;;6215720;23;20203;-62
2022/09/16 05:37:00;;;;;;;3.57;2.20;;;13.90;99.90;;;;;;6217100;23;20700;-65
2022/09/16 05:39:26;;;;;;;2.60;2.40;;;13.80;99.90;;;;;;6216751;23;20376;-65
2022/09/16 05:41:58;;;;;;;4.10;3.03;;;13.80;99.90;;;;;;6215687;23;20407;-65
2022/09/16 05:44:25;;;;;;;2.60;2.40;;;13.80;99.90;;;;;;6214854;23;20836;-64
2022/09/16 05:46:51;;;;;;;2.70;2.43;;;13.70;99.90;;;;;;6215263;23;20377;-64
2022/09/16 05:49:19;;;;;;;3.40;2.73;;;13.70;99.90;;;;;;6215578;23;20452;-64
2022/09/16 05:51:45;;;;;;;3.93;3.50;;;13.70;99.90;;;;;;6215596;23;20936;-64
2022/09/16 05:54:11;;;;;;;5.97;4.93;;;13.70;99.90;;;;;;6214872;23;20367;-64
2022/09/16 05:56:37;;;;;;;3.30;2.63;;;13.70;99.90;;;;;;6215265;23;20784;-64
2022/09/16 05:59:02;;;;;;;12.03;2.80;;;13.70;99.90;;;;;;6215329;23;20374;-64
2022/09/16 06:01:31;;;;;;;6.33;3.10;;;13.70;99.90;;;;;;6215199;23;20517;-64
2022/09/16 06:03:57;;;;;;;5.67;3.73;;;13.80;99.90;;;;;;6215098;23;20222;-64
2022/09/16 06:06:40;;;;;;;3.50;3.20;;;13.70;99.90;;;;;;6215733;23;20411;-65
2022/09/16 06:09:17;;;;;;;4.13;3.73;;;13.80;99.90;;;;;;6218337;23;20342;-64
2022/09/16 06:11:46;;;;;;;3.50;3.20;;;13.70;99.90;;;;;;6217628;23;20372;-64
2022/09/16 06:14:12;;;;;;;5.30;3.27;;;13.80;99.90;;;;;;6217299;23;20712;-64
2022/09/16 06:16:39;;;;;;;4.93;2.80;;;13.80;99.90;;;;;;6217287;23;20411;-64
2022/09/16 06:19:09;;;;;;;4.03;3.03;;;13.80;99.90;;;;;;6217554;23;20447;-64
2022/09/16 06:21:39;;;;;;;2.87;2.67;;;13.80;99.90;;;;;;6217421;23;20448;-64
2022/09/16 06:24:08;;;;;;;5.47;2.60;;;13.80;99.90;;;;;;6217098;23;20380;-63
2022/09/16 06:26:36;;;;;;;11.80;3.80;;;13.80;99.90;;;;;;6190509;23;20399;-63
2022/09/16 06:29:04;;;;;;;4.47;3.10;;;13.70;99.90;;;;;;6217473;23;20852;-64
2022/09/16 06:31:30;;;;;;;4.77;3.30;;;13.80;99.90;;;;;;6217156;23;20746;-64
2022/09/16 06:33:57;;;;;;;5.20;3.47;;;13.80;99.90;;;;;;6216772;23;20383;-64
2022/09/16 06:36:31;;;;;;;4.73;3.13;;;13.80;99.90;;;;;;6216983;23;20177;-62
2022/09/16 06:38:57;;;;;;;3.90;2.87;;;13.80;99.90;;;;;;6217140;23;20352;-62
2022/09/16 06:41:23;;;;;;;3.87;2.90;;;13.80;99.90;;;;;;6190242;23;20386;-61
2022/09/16 06:43:52;;;;;;;3.47;3.17;;;13.80;99.90;;;;;;6216612;23;20175;-63
2022/09/16 06:46:20;;;;;;;4.50;3.30;;;13.80;99.90;;;;;;6190276;23;20486;-61
2022/09/16 06:48:51;;;;;;;3.50;3.10;;;13.80;99.90;;;;;;6217346;23;20380;-62
2022/09/16 06:51:27;;;;;;;7.13;4.83;;;13.80;99.90;;;;;;6216899;23;20832;-63
2022/09/16 06:53:57;;;;;;;4.57;3.57;;;13.80;99.90;;;;;;6216795;23;20409;-64
2022/09/16 06:56:23;;;;;;;6.47;3.63;;;13.80;99.90;;;;;;6216891;23;20469;-61
2022/09/16 06:58:54;;;;;;;5.33;3.00;;;13.80;99.90;;;;;;6217272;23;20732;-62
2022/09/16 07:01:26;;;;;;;3.57;2.80;;;13.70;99.90;;;;;;6191415;23;20143;-62
2022/09/16 07:03:53;;;;;;;6.20;3.60;;;13.60;99.90;;;;;;6216359;23;20912;-62
2022/09/16 07:06:21;;;;;;;4.93;2.70;;;13.60;99.90;;;;;;6216828;23;20746;-62
2022/09/16 07:08:47;;;;;;;10.73;4.10;;;13.60;99.90;;;;;;6216873;23;20854;-61
2022/09/16 07:11:14;;;;;;;4.30;2.97;;;13.50;99.90;;;;;;6217231;23;20409;-61
2022/09/16 07:13:41;;;;;;;3.60;3.30;;;13.50;99.90;;;;;;6216580;23;20420;-62
2022/09/16 07:16:10;;;;;;;4.50;3.13;;;13.50;99.90;;;;;;6216175;23;20418;-61
2022/09/16 07:18:36;;;;;;;4.07;3.77;;;13.50;99.90;;;;;;6216400;23;20636;-63
2022/09/16 07:21:04;;;;;;;3.40;2.90;;;13.40;99.90;;;;;;6216639;23;20735;-63
2022/09/16 07:23:34;;;;;;;2.93;2.73;;;13.40;99.90;;;;;;6189535;23;20385;-63
2022/09/16 07:26:01;;;;;;;2.40;2.20;;;13.40;99.90;;;;;;6216492;23;20395;-63
2022/09/16 07:28:27;;;;;;;2.60;2.17;;;13.30;99.90;;;;;;6216792;23;20398;-63
2022/09/16 07:30:52;;;;;;;3.30;2.60;;;13.30;99.90;;;;;;6216162;23;20840;-63
2022/09/16 07:33:18;;;;;;;3.37;2.60;;;13.40;99.90;;;;;;6216399;23;20198;-61
2022/09/16 07:35:43;;;;;;;2.70;2.50;;;13.40;99.90;;;;;;6217069;23;20184;-60
2022/09/16 07:38:10;;;;;;;2.97;2.27;;;13.40;99.90;;;;;;6216869;23;20187;-60
2022/09/16 07:40:39;;;;;;;2.83;2.23;;;13.40;99.90;;;;;;6216769;23;20147;-62
2022/09/16 07:43:05;;;;;;;2.27;2.10;;;13.40;99.90;;;;;;6189536;23;20384;-61
2022/09/16 07:45:30;;;;;;;3.40;2.67;;;13.40;99.90;;;;;;6216583;23;20482;-60
2022/09/16 07:47:56;;;;;;;2.83;2.47;;;13.30;99.90;;;;;;6216730;23;20415;-61
2022/09/16 07:50:22;;;;;;;3.40;2.57;;;13.30;99.90;;;;;;6216878;23;20523;-61
2022/09/16 07:52:47;;;;;;;4.50;2.17;;;13.20;99.90;;;;;;6216392;23;20600;-61
2022/09/16 07:55:15;;;;;;;3.63;2.20;;;13.10;99.90;;;;;;6216675;23;20546;-59
2022/09/16 07:57:41;;;;;;;4.10;1.57;;;13.10;99.90;;;;;;6216842;23;20149;-61
2022/09/16 08:00:08;;;;;;;2.13;1.93;;;13.10;99.90;;;;;;6216623;23;20372;-61
2022/09/16 08:02:33;;;;;;;6.77;2.27;;;13.20;99.90;;;;;;6216297;23;20156;-61
2022/09/16 08:04:59;;;;;;;3.13;2.13;;;13.30;99.90;;;;;;6216113;23;20392;-61
2022/09/16 08:07:25;;;;;;;14.60;6.03;;;13.30;99.90;;;;;;6216066;23;20175;-61
2022/09/16 08:09:50;;;;;;;8.10;3.73;;;13.40;99.90;;;;;;6216085;23;20164;-64
2022/09/16 08:12:16;;;;;;;2.80;2.57;;;13.50;99.90;;;;;;6216047;23;20153;-60
2022/09/16 08:14:42;;;;;;;3.30;3.10;;;13.60;99.90;;;;;;6215645;23;20169;-61
2022/09/16 08:17:07;;;;;;;3.90;2.43;;;13.60;99.90;;;;;;6216024;23;20481;-61
2022/09/16 08:19:33;;;;;;;2.47;2.27;;;13.70;99.90;;;;;;6216613;23;20376;-61
2022/09/16 08:21:59;;;;;;;3.77;2.80;;;13.70;99.90;;;;;;6216495;23;20159;-61
2022/09/16 08:24:25;;;;;;;3.83;3.53;;;13.80;99.90;;;;;;6215681;23;20251;-60
2022/09/16 08:26:51;;;;;;;2.80;2.60;;;13.90;99.90;;;;;;6216590;23;20138;-60
2022/09/16 08:29:16;;;;;;;4.10;2.70;;;14.00;99.90;;;;;;6215938;23;20887;-60
2022/09/16 08:31:42;;;;;;;2.47;2.27;;;14.00;99.90;;;;;;6189611;23;20188;-60
2022/09/16 08:34:08;;;;;;;2.70;2.50;;;14.00;99.90;;;;;;6215527;23;20153;-60
2022/09/16 08:36:33;;;;;;;4.43;2.40;;;14.00;99.90;;;;;;6215750;23;20431;-59
2022/09/16 08:38:59;;;;;;;1.90;1.80;;;14.00;99.90;;;;;;6215632;23;20152;-60
2022/09/16 08:42:03;;;;;;;2.03;1.83;;;14.00;99.90;;;;;;6216031;23;20204;-60
2022/09/16 08:44:55;;;;;;;3.27;2.97;;;14.00;99.90;;;;;;6215751;23;20192;-61
2022/09/16 08:47:33;;;;;;;2.80;2.60;;;14.10;99.90;;;;;;6189239;23;20435;-62
2022/09/16 08:50:03;;;;;;;2.87;2.63;;;14.00;99.90;;;;;;6216036;23;20342;-60
2022/09/16 08:52:29;;;;;;;3.20;2.90;;;14.00;99.90;;;;;;6215412;23;20419;-58
2022/09/16 08:55:17;;;;;;;3.70;2.93;;;14.00;99.90;;;;;;6216073;23;20890;-60
2022/09/16 08:57:56;;;;;;;3.10;2.13;;;14.10;99.90;;;;;;6192866;23;20515;-61
2022/09/16 09:00:21;;;;;;;8.73;3.57;;;14.20;99.90;;;;;;6215817;23;20357;-61
2022/09/16 09:03:15;;;;;;;2.77;2.57;;;14.30;99.90;;;;;;6215708;23;20351;-60
2022/09/16 09:05:58;;;;;;;3.97;3.67;;;14.40;99.90;;;;;;6215604;23;20319;-61
2022/09/16 09:08:44;;;;;;;9.63;3.60;;;14.40;99.90;;;;;;6185732;23;20911;-61
2022/09/16 09:11:35;;;;;;;2.63;2.43;;;14.50;99.90;;;;;;6185892;23;20349;-62
2022/09/16 09:14:32;;;;;;;3.47;3.17;;;14.70;99.90;;;;;;6185115;23;20447;-61
2022/09/16 09:17:11;;;;;;;3.67;3.37;;;14.90;99.90;;;;;;6185986;23;20431;-60
2022/09/16 09:19:51;;;;;;;2.73;2.53;;;15.00;99.90;;;;;;6185465;23;20881;-61
2022/09/16 09:22:35;;;;;;;3.67;3.37;;;15.20;99.90;;;;;;6185954;23;20474;-62
2022/09/16 09:25:40;;;;;;;3.90;3.60;;;15.40;99.90;;;;;;6185551;23;20663;-60
2022/09/16 09:28:36;;;;;;;5.10;3.37;;;15.50;99.90;;;;;;6185585;23;20399;-60
2022/09/16 09:31:20;;;;;;;4.03;3.43;;;15.60;99.90;;;;;;6162848;23;20418;-60
2022/09/16 09:34:19;;;;;;;3.30;3.10;;;15.60;99.90;;;;;;6185461;23;20431;-61
2022/09/16 09:36:51;;;;;;;3.07;2.87;;;15.60;99.90;;;;;;6185254;23;20494;-60
2022/09/16 09:39:36;;;;;;;3.60;3.40;;;15.60;99.90;;;;;;6185624;23;20877;-60
2022/09/16 09:42:15;;;;;;;3.60;3.30;;;15.50;99.90;;;;;;6187332;23;20385;-61
2022/09/16 09:45:09;;;;;;;3.60;3.30;;;15.50;99.90;;;;;;6160793;23;20481;-60
2022/09/16 09:47:37;;;;;;;8.70;3.60;;;15.40;99.90;;;;;;6112817;23;20706;-60
2022/09/16 09:50:35;;;;;;;7.03;6.30;;;15.50;99.90;;;;;;6187241;23;20888;-61
2022/09/16 09:53:11;;;;;;;4.40;4.00;;;15.50;99.90;;;;;;6158123;23;20413;-61
2022/09/16 09:55:40;;;;;;;4.37;3.70;;;15.60;99.90;;;;;;6187209;23;20397;-63
2022/09/16 09:58:15;;;;;;;4.73;4.30;;;15.70;99.90;;;;;;6187599;23;20855;-63
2022/09/16 10:00:41;;;;;;;4.40;3.90;;;15.80;99.90;;;;;;6187278;23;20356;-66
2022/09/16 10:03:16;;;;;;;4.87;4.37;;;16.00;99.90;;;;;;6187168;23;20376;-63
2022/09/16 10:05:42;;;;;;;3.30;3.00;;;16.10;99.90;;;;;;6187598;23;20259;-63
2022/09/16 10:08:31;;;;;;;3.63;2.63;;;16.20;99.90;;;;;;6216488;23;20893;-66
2022/09/16 10:10:59;;;;;;;3.40;3.10;;;16.20;99.90;;;;;;6216420;23;20382;-66
2022/09/16 10:13:28;;;;;;;4.50;3.77;;;16.20;99.90;;;;;;6216954;23;20424;-64
2022/09/16 10:16:09;;;;;;;4.00;3.63;;;16.20;99.90;;;;;;6217399;23;20430;-63
2022/09/16 10:18:35;;;;;;;2.97;2.33;;;16.10;99.90;;;;;;6217511;23;20369;-62
2022/09/16 10:21:08;;;;;;;3.30;3.00;;;16.10;99.90;;;;;;6217100;23;20376;-65
2022/09/16 10:23:34;;;;;;;3.07;2.80;;;16.10;99.90;;;;;;6217052;23;20363;-65
2022/09/16 10:26:14;;;;;;;2.87;2.67;;;16.10;99.90;;;;;;6217582;23;20400;-64
2022/09/16 10:28:39;;;;;;;4.20;3.10;;;16.10;99.90;;;;;;6217637;23;20369;-64
2022/09/16 10:31:06;;;;;;;3.93;3.17;;;16.10;99.90;;;;;;6217436;23;20849;-63
2022/09/16 10:33:42;;;;;;;4.20;3.67;;;16.10;99.90;;;;;;6216801;23;20624;-63
2022/09/16 10:36:17;;;;;;;3.57;3.17;;;16.00;99.90;;;;;;6217159;23;20750;-63
2022/09/16 10:38:52;;;;;;;3.43;3.13;;;16.00;99.90;;;;;;6217478;23;20343;-63
2022/09/16 10:41:27;;;;;;;4.87;4.43;;;16.00;99.90;;;;;;6217570;23;20734;-62
2022/09/16 10:43:58;;;;;;;3.80;3.47;;;15.90;99.90;;;;;;6216480;23;20402;-62
2022/09/16 10:46:24;;;;;;;7.33;3.63;;;15.90;99.90;;;;;;6216639;23;20429;-61
2022/09/16 10:48:53;;;;;;;2.67;2.47;;;15.70;99.90;;;;;;6217344;23;20458;-62
2022/09/16 10:51:27;;;;;;;5.63;3.60;;;15.80;99.90;;;;;;6217218;23;20440;-62
2022/09/16 10:53:56;;;;;;;4.40;2.97;;;15.70;99.90;;;;;;6216286;23;20377;-61
2022/09/16 10:56:24;;;;;;;2.93;2.73;;;15.70;99.90;;;;;;6215341;23;20957;-63
2022/09/16 10:59:13;;;;;;;2.93;2.70;;;15.80;99.90;;;;;;6216676;23;20356;-62
2022/09/16 11:01:46;;;;;;;3.67;3.07;;;15.90;99.90;;;;;;6217348;23;20359;-62
2022/09/16 11:04:39;;;;;;;4.50;4.10;;;16.00;99.90;;;;;;6216673;23;20363;-63
2022/09/16 11:07:27;;;;;;;3.40;3.10;;;16.00;99.90;;;;;;6216598;23;20916;-62
2022/09/16 11:10:18;;;;;;;2.67;2.50;;;16.10;99.90;;;;;;6190308;23;20366;-61
2022/09/16 11:12:52;;;;;;;5.80;3.27;;;16.10;99.90;;;;;;6216719;23;20459;-62
2022/09/16 11:15:56;;;;;;;4.40;3.07;;;16.10;99.90;;;;;;6216598;23;20475;-61
2022/09/16 11:19:06;;;;;;;2.80;2.60;;;16.10;99.90;;;;;;6066760;23;20433;-61
2022/09/16 11:21:43;;;;;;;3.97;2.87;;;16.00;99.90;;;;;;6204448;23;20355;-61
2022/09/16 11:24:38;;;;;;;6.80;4.03;;;16.00;99.90;;;;;;6216112;23;20360;-61
2022/09/16 11:27:49;;;;;;;2.30;2.10;;;16.10;99.90;;;;;;6200499;23;20386;-60
2022/09/16 11:30:21;;;;;;;3.00;2.80;;;16.10;99.90;;;;;;6169816;23;20361;-62
2022/09/16 11:33:12;;;;;;;7.40;3.47;;;16.00;99.90;;;;;;6216759;23;20742;-60
2022/09/16 11:36:00;;;;;;;2.47;2.10;;;15.90;99.90;;;;;;6216698;23;20517;-60
2022/09/16 11:38:37;;;;;;;3.20;2.83;;;15.80;99.90;;;;;;6216451;23;20333;-60
2022/09/16 11:41:29;;;;;;;4.20;2.60;;;15.80;99.90;;;;;;6216464;23;20359;-60
2022/09/16 11:44:14;;;;;;;3.70;2.53;;;15.70;99.90;;;;;;6216532;23;20729;-60
2022/09/16 11:47:00;;;;;;;3.83;3.50;;;15.80;99.90;;;;;;6216787;23;20477;-61
2022/09/16 11:49:48;;;;;;;3.83;3.53;;;15.80;99.90;;;;;;6216424;23;20412;-62
2022/09/16 11:52:59;;;;;;;3.07;2.80;;;15.90;99.90;;;;;;6216210;23;20391;-62
2022/09/16 11:56:02;;;;;;;2.13;2.03;;;15.90;99.90;;;;;;6158997;23;20520;-61
2022/09/16 11:58:47;;;;;;;4.33;2.13;;;16.10;99.90;;;;;;6214324;23;20451;-61
2022/09/16 12:01:38;;;;;;;2.30;2.20;;;16.30;99.90;;;;;;6214475;23;20741;-63
2022/09/16 12:04:14;;;;;;;2.40;1.90;;;16.50;99.90;;;;;;6213261;23;20488;-61
2022/09/16 12:06:54;;;;;;;2.03;1.90;;;16.70;99.90;;;;;;6213977;23;20423;-61
2022/09/16 12:09:42;;;;;;;3.47;1.97;;;17.00;99.90;;;;;;6214068;23;20460;-63
2022/09/16 12:12:14;;;;;;;2.63;1.47;;;17.20;99.90;;;;;;6214025;23;20369;-62
2022/09/16 12:14:45;;;;;;;2.60;2.40;;;17.50;99.90;;;;;;6186691;23;20487;-61
2022/09/16 12:17:21;;;;;;;2.13;2.03;;;17.80;99.90;;;;;;6187666;23;20368;-61
2022/09/16 12:19:53;;;;;;;6.60;1.60;;;18.00;99.90;;;;;;6214022;23;20357;-62
2022/09/16 12:22:26;;;;;;;2.03;1.90;;;18.30;99.90;;;;;;6187183;23;20383;-62
2022/09/16 12:25:19;;;;;;;1.60;1.50;;;18.50;99.90;;;;;;6216530;23;20370;-62
2022/09/16 12:28:14;;;;;;;1.90;1.80;;;18.70;99.90;;;;;;6216154;23;20407;-62
2022/09/16 12:30:44;;;;;;;2.00;1.80;;;18.80;99.90;;;;;;6216481;23;20851;-62
2022/09/16 12:33:21;;;;;;;1.60;1.50;;;19.00;99.90;;;;;;6215894;23;20343;-62
2022/09/16 12:36:09;;;;;;;3.43;1.50;;;19.20;99.90;;;;;;6216371;23;20441;-62
2022/09/16 12:38:35;;;;;;;1.80;1.70;;;19.40;99.90;;;;;;6216376;23;20349;-62
2022/09/16 12:41:28;;;;;;;1.90;1.47;;;19.40;99.90;;;;;;6222093;23;20839;-62
2022/09/16 12:44:29;;;;;;;5.63;2.57;;;19.50;99.90;;;;;;6217230;23;20295;-61
2022/09/16 12:47:13;;;;;;;1.30;1.20;;;19.50;99.90;;;;;;6215913;23;20347;-61
2022/09/16 12:49:54;;;;;;;1.60;1.50;;;19.30;99.90;;;;;;6216647;23;20357;-63
2022/09/16 12:52:50;;;;;;;1.40;1.30;;;19.20;99.90;;;;;;6216554;23;20376;-62
2022/09/16 12:55:52;;;;;;;1.30;1.20;;;19.00;99.90;;;;;;6216465;23;20434;-62
2022/09/16 12:58:55;;;;;;;1.30;1.20;;;18.80;99.70;;;;;;6216970;23;20372;-63
2022/09/16 13:01:25;;;;;;;1.47;1.37;;;18.50;99.90;;;;;;6216938;23;20440;-62
2022/09/16 13:04:07;;;;;;;2.20;1.50;;;18.30;99.90;;;;;;6216370;23;20361;-62
2022/09/16 13:06:37;;;;;;;2.50;1.27;;;18.20;99.90;;;;;;6217341;23;20367;-63
2022/09/16 13:09:24;;;;;;;1.90;1.70;;;18.10;99.90;;;;;;6216235;23;20370;-62
2022/09/16 13:11:59;;;;;;;1.57;1.13;;;17.90;99.90;;;;;;6215931;23;20679;-63
2022/09/16 13:14:32;;;;;;;6.80;2.03;;;17.90;99.90;;;;;;6215514;23;20423;-62
2022/09/16 13:17:01;;;;;;;3.63;2.40;;;17.80;99.90;;;;;;6215708;23;20398;-62
2022/09/16 13:19:48;;;;;;;2.77;2.50;;;17.80;99.90;;;;;;6189737;23;20459;-61
2022/09/16 13:22:19;;;;;;;3.10;1.67;;;17.70;99.90;;;;;;6215811;23;20365;-61
2022/09/16 13:24:50;;;;;;;1.60;1.50;;;17.60;99.90;;;;;;6215245;23;20385;-60
2022/09/16 13:27:26;;;;;;;3.90;2.97;;;17.50;99.90;;;;;;6216077;23;20353;-60
2022/09/16 13:30:03;;;;;;;3.03;2.40;;;17.40;99.90;;;;;;6216221;23;20338;-60
2022/09/16 13:32:50;;;;;;;2.20;1.87;;;17.40;99.90;;;;;;6215512;23;20363;-61
2022/09/16 13:35:19;;;;;;;3.70;1.50;;;17.30;99.90;;;;;;6215523;23;20427;-59
2022/09/16 13:37:49;;;;;;;1.50;1.40;;;17.30;99.90;;;;;;6188471;23;20369;-61
2022/09/16 13:40:35;;;;;;;1.73;1.63;;;17.30;99.90;;;;;;6215541;23;20413;-59
2022/09/16 13:43:13;;;;;;;2.40;2.10;;;17.30;99.90;;;;;;6214432;23;20385;-59
2022/09/16 13:45:45;;;;;;;3.30;3.00;;;17.30;99.90;;;;;;6188750;23;20380;-61
2022/09/16 13:48:20;;;;;;;1.63;1.50;;;17.30;99.90;;;;;;6215821;23;20376;-61
2022/09/16 13:50:52;;;;;;;2.57;2.37;;;17.40;99.90;;;;;;6215290;23;20379;-60
2022/09/16 13:53:27;;;;;;;4.97;2.37;;;17.60;99.90;;;;;;6215326;23;20361;-60
2022/09/16 13:55:59;;;;;;;3.20;1.67;;;17.80;99.90;;;;;;6215153;23;20426;-61
2022/09/16 13:59:02;;;;;;;1.87;1.77;;;18.00;99.90;;;;;;6215644;23;20399;-60
2022/09/16 14:01:45;;;;;;;1.80;1.70;;;18.10;99.90;;;;;;6215382;23;20353;-60
2022/09/16 14:04:43;;;;;;;1.80;1.70;;;18.10;99.90;;;;;;6215286;23;20370;-61
2022/09/16 14:07:12;;;;;;;3.33;2.03;;;18.10;99.90;;;;;;6214847;23;20396;-60
2022/09/16 14:09:43;;;;;;;1.80;1.70;;;18.00;99.90;;;;;;6215674;23;20349;-60
2022/09/16 14:12:20;;;;;;;3.83;3.00;;;18.00;99.90;;;;;;6215311;23;20372;-61
2022/09/16 14:14:46;;;;;;;2.73;1.90;;;18.00;99.90;;;;;;6214496;23;20391;-61
2022/09/16 14:17:26;;;;;;;2.20;2.00;;;17.90;99.90;;;;;;6214394;23;20396;-60
2022/09/16 14:19:57;;;;;;;2.97;1.83;;;17.90;99.90;;;;;;6215047;23;20212;-60
2022/09/16 14:22:26;;;;;;;2.03;1.93;;;17.90;99.90;;;;;;6187537;23;20362;-60
2022/09/16 14:24:53;;;;;;;1.90;1.80;;;17.90;99.90;;;;;;6214764;23;20925;-60
2022/09/16 14:27:18;;;;;;;3.17;2.80;;;17.90;99.90;;;;;;6215167;23;20373;-60
2022/09/16 14:29:55;;;;;;;2.20;2.10;;;18.00;99.90;;;;;;6217581;23;20471;-61
2022/09/16 14:32:35;;;;;;;4.23;1.90;;;18.00;99.90;;;;;;6216455;23;20149;-60
2022/09/16 14:35:08;;;;;;;2.30;2.10;;;18.00;99.90;;;;;;6215513;23;20479;-60
2022/09/16 14:37:34;;;;;;;2.10;1.90;;;18.10;99.90;;;;;;6217380;23;20431;-60
2022/09/16 14:40:10;;;;;;;2.03;1.93;;;18.00;99.90;;;;;;6216979;23;20407;-60
2022/09/16 14:42:36;;;;;;;4.57;3.30;;;18.00;99.90;;;;;;6216482;23;20351;-60
2022/09/16 14:45:03;;;;;;;3.00;2.13;;;17.90;99.90;;;;;;6217466;23;20801;-60
2022/09/16 14:47:31;;;;;;;4.53;2.87;;;17.80;99.90;;;;;;6217352;23;20356;-60
2022/09/16 14:50:13;;;;;;;3.73;2.20;;;17.60;99.90;;;;;;6190607;23;20438;-60
2022/09/16 14:52:39;;;;;;;4.07;2.20;;;17.50;99.90;;;;;;6216819;23;20387;-60
2022/09/16 14:55:28;;;;;;;4.43;2.50;;;17.50;99.90;;;;;;6216610;23;20486;-61
2022/09/16 14:57:54;;;;;;;4.00;2.33;;;17.40;99.90;;;;;;6217131;23;20182;-61
2022/09/16 15:00:21;;;;;;;1.53;1.43;;;17.40;99.90;;;;;;6216806;23;20375;-60
2022/09/16 15:02:58;;;;;;;3.80;1.97;;;17.50;99.90;;;;;;6216723;23;20728;-60
2022/09/16 15:05:34;;;;;;;1.57;1.47;;;17.40;99.90;;;;;;6216921;23;20766;-60
2022/09/16 15:08:13;;;;;;;3.50;3.20;;;17.40;99.90;;;;;;6216636;23;20398;-61
2022/09/16 15:10:39;;;;;;;1.80;1.70;;;17.40;99.90;;;;;;6216931;23;20367;-60
2022/09/16 15:13:11;;;;;;;1.30;1.30;;;17.30;99.90;;;;;;6216262;23;20402;-60
2022/09/16 15:15:43;;;;;;;2.37;2.17;;;17.30;99.90;;;;;;6216541;23;20420;-61
2022/09/16 15:18:20;;;;;;;3.40;1.80;;;17.30;99.90;;;;;;6217208;23;20338;-61
2022/09/16 15:21:10;;;;;;;1.77;1.67;;;17.40;99.90;;;;;;6189918;23;20393;-60
2022/09/16 15:23:38;;;;;;;5.83;4.90;;;17.40;99.90;;;;;;6211813;23;20373;-61
2022/09/16 15:26:13;;;;;;;1.67;1.57;;;17.50;99.90;;;;;;6216441;23;20429;-61
2022/09/16 15:29:03;;;;;;;1.77;1.67;;;17.50;99.90;;;;;;6216405;23;20348;-60
2022/09/16 15:31:43;;;;;;;2.33;1.90;;;17.40;99.90;;;;;;6198414;23;20374;-61
2022/09/16 15:34:18;;;;;;;2.60;2.03;;;17.40;99.90;;;;;;6215976;23;20444;-60
2022/09/16 15:36:55;;;;;;;2.40;1.80;;;17.40;99.90;;;;;;6216811;23;20467;-60
2022/09/16 15:39:34;;;;;;;2.23;2.03;;;17.30;99.90;;;;;;6216614;23;20438;-60
2022/09/16 15:42:12;;;;;;;1.60;1.50;;;17.30;99.90;;;;;;6216787;23;20351;-60
2022/09/16 15:44:56;;;;;;;1.20;1.20;;;17.30;99.90;;;;;;6216314;23;20423;-60
2022/09/16 15:47:25;;;;;;;2.70;2.50;;;17.30;99.90;;;;;;6216650;23;20363;-60
2022/09/16 15:49:59;;;;;;;1.90;1.70;;;17.30;99.90;;;;;;6216624;23;20375;-61
2022/09/16 15:52:25;;;;;;;2.17;1.97;;;17.20;99.90;;;;;;6216099;23;20355;-60
2022/09/16 15:54:54;;;;;;;1.80;1.70;;;17.20;99.90;;;;;;6216338;23;20398;-61
2022/09/16 15:57:32;;;;;;;1.80;1.53;;;17.20;99.90;;;;;;6216655;23;20383;-60
2022/09/16 16:00:11;;;;;;;2.43;1.80;;;17.00;99.90;;;;;;6216971;23;20357;-61
2022/09/16 16:02:44;;;;;;;1.53;1.43;;;17.10;99.90;;;;;;6215959;23;20355;-60
2022/09/16 16:05:14;;;;;;;3.33;2.23;;;17.10;99.90;;;;;;6216348;23;20401;-60
2022/09/16 16:07:50;;;;;;;2.33;2.10;;;17.10;99.90;;;;;;6216046;23;20397;-60
2022/09/16 16:10:22;;;;;;;1.67;1.30;;;17.20;99.90;;;;;;6216518;23;20475;-60
2022/09/16 16:12:49;;;;;;;2.50;2.20;;;17.10;99.90;;;;;;6215592;23;20453;-61
2022/09/16 16:15:20;;;;;;;1.57;1.47;;;17.10;99.90;;;;;;6216077;23;20397;-60
2022/09/16 16:17:47;;;;;;;1.60;1.50;;;17.00;99.90;;;;;;6215276;23;20363;-61
2022/09/16 16:20:15;;;;;;;1.73;1.73;;;16.90;99.90;;;;;;6215849;23;20496;-61
2022/09/16 16:22:42;;;;;;;1.33;1.30;;;16.80;99.90;;;;;;6188913;23;20409;-61
2022/09/16 16:25:08;;;;;;;1.50;1.40;;;16.60;99.90;;;;;;6215998;23;20394;-58
2022/09/16 16:27:34;;;;;;;2.17;1.53;;;16.50;99.90;;;;;;6215845;23;20903;-59
2022/09/16 16:29:59;;;;;;;1.60;1.43;;;16.40;99.90;;;;;;6215479;23;20426;-59
2022/09/16 16:32:26;;;;;;;3.13;1.67;;;16.30;99.90;;;;;;6215224;23;20196;-60
2022/09/16 16:34:53;;;;;;;5.70;2.00;;;16.20;99.90;;;;;;6188929;23;20197;-60
2022/09/16 16:37:19;;;;;;;3.17;2.00;;;16.20;99.90;;;;;;6216003;23;20343;-60
2022/09/16 16:39:45;;;;;;;1.83;1.73;;;16.20;99.90;;;;;;6215938;23;20695;-60
2022/09/16 16:42:12;;;;;;;2.23;1.87;;;16.30;99.90;;;;;;6215681;23;20582;-60
2022/09/16 16:44:37;;;;;;;1.60;1.50;;;16.30;99.90;;;;;;6215364;23;20170;-60
2022/09/16 16:47:03;;;;;;;2.00;1.90;;;16.40;99.90;;;;;;6215948;23;20698;-61
2022/09/16 16:49:29;;;;;;;2.50;2.30;;;16.30;99.90;;;;;;6215072;23;20176;-60
2022/09/16 16:51:56;;;;;;;1.50;1.40;;;16.20;99.90;;;;;;6214881;23;20380;-60
2022/09/16 16:54:23;;;;;;;1.50;1.40;;;16.20;99.90;;;;;;6215186;23;20506;-62
2022/09/16 16:56:49;;;;;;;1.30;1.20;;;16.10;99.90;;;;;;6215360;23;20448;-60
2022/09/16 16:59:15;;;;;;;1.57;1.47;;;16.10;99.90;;;;;;6216202;23;20373;-60
2022/09/16 17:01:42;;;;;;;1.70;1.60;;;16.00;99.90;;;;;;6214429;23;20372;-61
2022/09/16 17:04:08;;;;;;;2.00;1.53;;;15.90;99.90;;;;;;6215256;23;20339;-67
2022/09/16 17:06:35;;;;;;;1.77;1.70;;;15.80;99.90;;;;;;6215718;23;20417;-60
2022/09/16 17:09:02;;;;;;;3.90;2.67;;;15.70;99.90;;;;;;6215964;23;20372;-60
2022/09/16 17:11:29;;;;;;;1.70;1.60;;;15.60;99.90;;;;;;6215568;23;20352;-61
2022/09/16 17:13:58;;;;;;;4.60;1.43;;;15.40;99.90;;;;;;6215482;23;20451;-60
2022/09/16 17:16:25;;;;;;;1.03;1.00;;;15.30;99.90;;;;;;6215625;23;20420;-61
2022/09/16 17:18:51;;;;;;;2.03;1.93;;;15.30;99.90;;;;;;6215604;23;20376;-59
2022/09/16 17:21:28;;;;;;;4.00;1.13;;;15.30;99.90;;;;;;6215505;23;20714;-60